sensor_id;sensor_type;location;lat;lon;timestamp;P1;durP1;ratioP1;P2;durP2;ratioP2
71462;SDS011;59266;52.608;13.260;2023-03-16T00:01:05;14.45;;;2.22;;
71462;SDS011;59266;52.608;13.260;2023-03-16T00:03:33;13.07;;;2.55;;
71462;SDS011;59266;52.608;13.260;2023-03-16T00:06:00;12.25;;;2.25;;
71462;SDS011;59266;52.608;13.260;2023-03-16T00:08:27;15.07;;;3.17;;
71462;SDS011;59266;52.608;13.260;2023-03-16T00:10:53;6.13;;;1.85;;
71462;SDS011;59266;52.608;13.260;2023-03-16T00:13:21;10.00;;;2.45;;
71462;SDS011;59266;52.608;13.260;2023-03-16T00:15:57;10.45;;;2.53;;
71462;SDS011;59266;52.608;13.260;2023-03-16T00:18:26;11.32;;;1.80;;
71462;SDS011;59266;52.608;13.260;2023-03-16T00:20:55;12.10;;;2.47;;
71462;SDS011;59266;52.608;13.260;2023-03-16T00:23:23;6.45;;;2.05;;
71462;SDS011;59266;52.608;13.260;2023-03-16T00:25:54;12.20;;;2.30;;
71462;SDS011;59266;52.608;13.260;2023-03-16T00:28:21;6.03;;;2.10;;
71462;SDS011;59266;52.608;13.260;2023-03-16T00:30:49;14.63;;;2.58;;
71462;SDS011;59266;52.608;13.260;2023-03-16T00:33:16;8.50;;;1.92;;
71462;SDS011;59266;52.608;13.260;2023-03-16T00:35:47;8.38;;;2.15;;
71462;SDS011;59266;52.608;13.260;2023-03-16T00:38:16;9.70;;;2.20;;
71462;SDS011;59266;52.608;13.260;2023-03-16T00:40:44;6.95;;;2.08;;
71462;SDS011;59266;52.608;13.260;2023-03-16T00:43:12;13.27;;;2.53;;
71462;SDS011;59266;52.608;13.260;2023-03-16T00:45:44;8.98;;;2.42;;
71462;SDS011;59266;52.608;13.260;2023-03-16T00:48:11;9.20;;;2.50;;
71462;SDS011;59266;52.608;13.260;2023-03-16T00:50:38;12.90;;;2.35;;
71462;SDS011;59266;52.608;13.260;2023-03-16T00:53:04;9.38;;;2.47;;
71462;SDS011;59266;52.608;13.260;2023-03-16T00:55:31;13.80;;;2.70;;
71462;SDS011;59266;52.608;13.260;2023-03-16T00:57:58;11.20;;;2.55;;
71462;SDS011;59266;52.608;13.260;2023-03-16T01:00:25;11.82;;;2.70;;
71462;SDS011;59266;52.608;13.260;2023-03-16T01:02:53;9.70;;;2.05;;
71462;SDS011;59266;52.608;13.260;2023-03-16T01:05:20;6.93;;;2.22;;
71462;SDS011;59266;52.608;13.260;2023-03-16T01:07:48;9.27;;;2.22;;
71462;SDS011;59266;52.608;13.260;2023-03-16T01:10:14;7.00;;;1.95;;
71462;SDS011;59266;52.608;13.260;2023-03-16T01:12:42;8.45;;;2.10;;
71462;SDS011;59266;52.608;13.260;2023-03-16T01:15:10;8.88;;;2.20;;
71462;SDS011;59266;52.608;13.260;2023-03-16T01:17:37;9.43;;;2.10;;
71462;SDS011;59266;52.608;13.260;2023-03-16T01:20:03;10.95;;;2.28;;
71462;SDS011;59266;52.608;13.260;2023-03-16T01:22:33;8.80;;;2.30;;
71462;SDS011;59266;52.608;13.260;2023-03-16T01:25:00;6.70;;;2.10;;
71462;SDS011;59266;52.608;13.260;2023-03-16T01:27:26;11.27;;;2.58;;
71462;SDS011;59266;52.608;13.260;2023-03-16T01:29:53;9.90;;;2.45;;
71462;SDS011;59266;52.608;13.260;2023-03-16T01:32:19;7.00;;;1.95;;
71462;SDS011;59266;52.608;13.260;2023-03-16T01:34:46;9.32;;;2.28;;
71462;SDS011;59266;52.608;13.260;2023-03-16T01:37:13;9.13;;;2.20;;
71462;SDS011;59266;52.608;13.260;2023-03-16T01:39:39;8.07;;;2.40;;
71462;SDS011;59266;52.608;13.260;2023-03-16T01:42:06;6.40;;;2.03;;
71462;SDS011;59266;52.608;13.260;2023-03-16T01:47:30;5.97;;;1.98;;
71462;SDS011;59266;52.608;13.260;2023-03-16T01:50:03;7.07;;;2.30;;
71462;SDS011;59266;52.608;13.260;2023-03-16T01:52:32;9.27;;;2.25;;
71462;SDS011;59266;52.608;13.260;2023-03-16T01:55:07;12.43;;;2.05;;
71462;SDS011;59266;52.608;13.260;2023-03-16T01:57:39;9.65;;;2.25;;
71462;SDS011;59266;52.608;13.260;2023-03-16T02:02:39;7.30;;;2.22;;
71462;SDS011;59266;52.608;13.260;2023-03-16T02:05:16;8.05;;;2.55;;
71462;SDS011;59266;52.608;13.260;2023-03-16T02:07:49;6.97;;;1.67;;
71462;SDS011;59266;52.608;13.260;2023-03-16T02:10:18;7.80;;;2.25;;
71462;SDS011;59266;52.608;13.260;2023-03-16T02:12:45;9.95;;;2.13;;
71462;SDS011;59266;52.608;13.260;2023-03-16T02:15:12;13.32;;;2.42;;
71462;SDS011;59266;52.608;13.260;2023-03-16T02:17:40;7.53;;;2.22;;
71462;SDS011;59266;52.608;13.260;2023-03-16T02:23:01;9.90;;;1.83;;
71462;SDS011;59266;52.608;13.260;2023-03-16T02:25:33;11.23;;;3.03;;
71462;SDS011;59266;52.608;13.260;2023-03-16T02:28:21;10.90;;;2.03;;
71462;SDS011;59266;52.608;13.260;2023-03-16T02:30:55;9.60;;;1.85;;
71462;SDS011;59266;52.608;13.260;2023-03-16T02:33:21;8.85;;;2.03;;
71462;SDS011;59266;52.608;13.260;2023-03-16T02:35:49;6.75;;;2.20;;
71462;SDS011;59266;52.608;13.260;2023-03-16T02:38:15;17.08;;;2.50;;
71462;SDS011;59266;52.608;13.260;2023-03-16T02:40:42;11.43;;;2.38;;
71462;SDS011;59266;52.608;13.260;2023-03-16T02:43:13;5.38;;;1.67;;
71462;SDS011;59266;52.608;13.260;2023-03-16T02:45:45;11.68;;;2.17;;
71462;SDS011;59266;52.608;13.260;2023-03-16T02:48:40;9.30;;;2.63;;
71462;SDS011;59266;52.608;13.260;2023-03-16T02:51:23;9.63;;;1.90;;
71462;SDS011;59266;52.608;13.260;2023-03-16T02:53:49;9.75;;;1.90;;
71462;SDS011;59266;52.608;13.260;2023-03-16T02:56:16;10.05;;;2.17;;
71462;SDS011;59266;52.608;13.260;2023-03-16T02:58:42;6.47;;;2.00;;
71462;SDS011;59266;52.608;13.260;2023-03-16T03:01:09;14.77;;;2.30;;
71462;SDS011;59266;52.608;13.260;2023-03-16T03:03:35;16.30;;;1.88;;
71462;SDS011;59266;52.608;13.260;2023-03-16T03:06:02;8.40;;;2.17;;
71462;SDS011;59266;52.608;13.260;2023-03-16T03:08:29;8.45;;;2.42;;
71462;SDS011;59266;52.608;13.260;2023-03-16T03:10:58;9.93;;;2.08;;
71462;SDS011;59266;52.608;13.260;2023-03-16T03:13:24;14.48;;;2.17;;
71462;SDS011;59266;52.608;13.260;2023-03-16T03:15:51;12.85;;;3.13;;
71462;SDS011;59266;52.608;13.260;2023-03-16T03:18:18;6.38;;;2.00;;
71462;SDS011;59266;52.608;13.260;2023-03-16T03:20:44;17.60;;;2.53;;
71462;SDS011;59266;52.608;13.260;2023-03-16T03:23:11;13.35;;;2.22;;
71462;SDS011;59266;52.608;13.260;2023-03-16T03:25:37;6.95;;;2.10;;
71462;SDS011;59266;52.608;13.260;2023-03-16T03:28:04;10.88;;;2.38;;
71462;SDS011;59266;52.608;13.260;2023-03-16T03:30:31;6.30;;;1.60;;
71462;SDS011;59266;52.608;13.260;2023-03-16T03:32:58;9.45;;;1.85;;
71462;SDS011;59266;52.608;13.260;2023-03-16T03:35:24;17.52;;;2.38;;
71462;SDS011;59266;52.608;13.260;2023-03-16T03:37:51;6.97;;;2.10;;
71462;SDS011;59266;52.608;13.260;2023-03-16T03:40:18;9.05;;;1.90;;
71462;SDS011;59266;52.608;13.260;2023-03-16T03:42:46;10.20;;;2.25;;
71462;SDS011;59266;52.608;13.260;2023-03-16T03:45:13;10.18;;;2.20;;
71462;SDS011;59266;52.608;13.260;2023-03-16T03:47:43;6.72;;;1.88;;
71462;SDS011;59266;52.608;13.260;2023-03-16T03:50:10;6.82;;;2.00;;
71462;SDS011;59266;52.608;13.260;2023-03-16T03:52:38;22.35;;;2.42;;
71462;SDS011;59266;52.608;13.260;2023-03-16T03:55:05;8.65;;;2.25;;
71462;SDS011;59266;52.608;13.260;2023-03-16T03:57:31;7.70;;;2.20;;
71462;SDS011;59266;52.608;13.260;2023-03-16T03:59:58;11.70;;;2.53;;
71462;SDS011;59266;52.608;13.260;2023-03-16T04:02:24;6.63;;;1.90;;
71462;SDS011;59266;52.608;13.260;2023-03-16T04:04:51;9.43;;;2.35;;
71462;SDS011;59266;52.608;13.260;2023-03-16T04:07:18;7.35;;;2.13;;
71462;SDS011;59266;52.608;13.260;2023-03-16T04:09:44;14.23;;;1.92;;
71462;SDS011;59266;52.608;13.260;2023-03-16T04:12:11;10.82;;;2.10;;
71462;SDS011;59266;52.608;13.260;2023-03-16T04:14:38;9.48;;;2.80;;
71462;SDS011;59266;52.608;13.260;2023-03-16T04:17:05;7.72;;;2.08;;
71462;SDS011;59266;52.608;13.260;2023-03-16T04:19:32;8.02;;;2.10;;
71462;SDS011;59266;52.608;13.260;2023-03-16T04:21:59;6.85;;;2.10;;
71462;SDS011;59266;52.608;13.260;2023-03-16T04:24:25;9.90;;;1.92;;
71462;SDS011;59266;52.608;13.260;2023-03-16T04:26:52;10.68;;;2.30;;
71462;SDS011;59266;52.608;13.260;2023-03-16T04:29:19;11.45;;;3.15;;
71462;SDS011;59266;52.608;13.260;2023-03-16T04:31:46;7.65;;;1.88;;
71462;SDS011;59266;52.608;13.260;2023-03-16T04:34:13;10.00;;;2.28;;
71462;SDS011;59266;52.608;13.260;2023-03-16T04:36:39;9.18;;;2.33;;
71462;SDS011;59266;52.608;13.260;2023-03-16T04:39:07;7.00;;;2.00;;
71462;SDS011;59266;52.608;13.260;2023-03-16T04:41:35;7.70;;;1.42;;
71462;SDS011;59266;52.608;13.260;2023-03-16T04:44:02;6.22;;;1.92;;
71462;SDS011;59266;52.608;13.260;2023-03-16T04:46:29;5.18;;;1.52;;
71462;SDS011;59266;52.608;13.260;2023-03-16T04:48:57;9.48;;;2.10;;
71462;SDS011;59266;52.608;13.260;2023-03-16T04:51:24;6.53;;;2.13;;
71462;SDS011;59266;52.608;13.260;2023-03-16T04:53:51;4.57;;;1.63;;
71462;SDS011;59266;52.608;13.260;2023-03-16T04:56:17;12.45;;;2.40;;
71462;SDS011;59266;52.608;13.260;2023-03-16T04:58:45;10.32;;;2.72;;
71462;SDS011;59266;52.608;13.260;2023-03-16T05:01:13;8.65;;;2.00;;
71462;SDS011;59266;52.608;13.260;2023-03-16T05:03:41;5.00;;;1.70;;
71462;SDS011;59266;52.608;13.260;2023-03-16T05:06:09;7.65;;;2.15;;
71462;SDS011;59266;52.608;13.260;2023-03-16T05:08:37;7.38;;;2.05;;
71462;SDS011;59266;52.608;13.260;2023-03-16T05:11:03;9.23;;;1.80;;
71462;SDS011;59266;52.608;13.260;2023-03-16T05:13:30;5.70;;;1.73;;
71462;SDS011;59266;52.608;13.260;2023-03-16T05:15:57;6.88;;;2.33;;
71462;SDS011;59266;52.608;13.260;2023-03-16T05:18:24;6.78;;;1.73;;
71462;SDS011;59266;52.608;13.260;2023-03-16T05:20:51;12.40;;;2.13;;
71462;SDS011;59266;52.608;13.260;2023-03-16T05:23:19;6.88;;;1.90;;
71462;SDS011;59266;52.608;13.260;2023-03-16T05:25:46;11.25;;;2.25;;
71462;SDS011;59266;52.608;13.260;2023-03-16T05:28:13;9.48;;;1.65;;
71462;SDS011;59266;52.608;13.260;2023-03-16T05:30:41;6.45;;;1.90;;
71462;SDS011;59266;52.608;13.260;2023-03-16T05:33:10;15.32;;;2.60;;
71462;SDS011;59266;52.608;13.260;2023-03-16T05:35:37;10.75;;;1.92;;
71462;SDS011;59266;52.608;13.260;2023-03-16T05:38:04;13.95;;;2.50;;
71462;SDS011;59266;52.608;13.260;2023-03-16T05:40:30;13.60;;;1.98;;
71462;SDS011;59266;52.608;13.260;2023-03-16T05:42:58;14.82;;;2.03;;
71462;SDS011;59266;52.608;13.260;2023-03-16T05:45:27;11.05;;;2.67;;
71462;SDS011;59266;52.608;13.260;2023-03-16T05:47:54;6.70;;;1.83;;
71462;SDS011;59266;52.608;13.260;2023-03-16T05:50:21;6.53;;;1.90;;
71462;SDS011;59266;52.608;13.260;2023-03-16T05:52:47;8.10;;;2.17;;
71462;SDS011;59266;52.608;13.260;2023-03-16T05:55:15;7.93;;;2.03;;
71462;SDS011;59266;52.608;13.260;2023-03-16T05:57:42;11.68;;;2.17;;
71462;SDS011;59266;52.608;13.260;2023-03-16T06:00:10;6.00;;;2.00;;
71462;SDS011;59266;52.608;13.260;2023-03-16T06:05:09;6.70;;;2.10;;
71462;SDS011;59266;52.608;13.260;2023-03-16T06:07:36;9.18;;;2.35;;
71462;SDS011;59266;52.608;13.260;2023-03-16T06:10:03;14.73;;;2.47;;
71462;SDS011;59266;52.608;13.260;2023-03-16T06:12:31;7.20;;;2.45;;
71462;SDS011;59266;52.608;13.260;2023-03-16T06:14:59;12.30;;;2.33;;
71462;SDS011;59266;52.608;13.260;2023-03-16T06:17:26;10.65;;;2.50;;
71462;SDS011;59266;52.608;13.260;2023-03-16T06:19:52;8.55;;;2.70;;
71462;SDS011;59266;52.608;13.260;2023-03-16T06:22:19;7.78;;;2.40;;
71462;SDS011;59266;52.608;13.260;2023-03-16T06:24:46;8.00;;;2.45;;
71462;SDS011;59266;52.608;13.260;2023-03-16T06:27:15;14.35;;;4.00;;
71462;SDS011;59266;52.608;13.260;2023-03-16T06:29:43;1999.90;;;816.30;;
71462;SDS011;59266;52.608;13.260;2023-03-16T06:32:10;1999.90;;;927.17;;
71462;SDS011;59266;52.608;13.260;2023-03-16T06:34:36;1999.90;;;980.13;;
71462;SDS011;59266;52.608;13.260;2023-03-16T06:37:03;1999.90;;;822.35;;
71462;SDS011;59266;52.608;13.260;2023-03-16T06:39:30;1999.90;;;298.67;;
71462;SDS011;59266;52.608;13.260;2023-03-16T06:41:57;112.65;;;9.27;;
71462;SDS011;59266;52.608;13.260;2023-03-16T06:44:25;21.83;;;5.20;;
71462;SDS011;59266;52.608;13.260;2023-03-16T06:46:51;12.93;;;4.40;;
71462;SDS011;59266;52.608;13.260;2023-03-16T06:49:18;11.23;;;3.88;;
71462;SDS011;59266;52.608;13.260;2023-03-16T06:51:44;12.80;;;3.00;;
71462;SDS011;59266;52.608;13.260;2023-03-16T06:54:11;7.85;;;2.08;;
71462;SDS011;59266;52.608;13.260;2023-03-16T06:56:37;10.60;;;2.38;;
71462;SDS011;59266;52.608;13.260;2023-03-16T06:59:04;7.55;;;2.28;;
71462;SDS011;59266;52.608;13.260;2023-03-16T07:01:31;6.70;;;1.98;;
71462;SDS011;59266;52.608;13.260;2023-03-16T07:03:58;6.75;;;1.63;;
71462;SDS011;59266;52.608;13.260;2023-03-16T07:06:24;7.22;;;2.20;;
71462;SDS011;59266;52.608;13.260;2023-03-16T07:08:51;5.75;;;2.05;;
71462;SDS011;59266;52.608;13.260;2023-03-16T07:11:17;9.80;;;2.10;;
71462;SDS011;59266;52.608;13.260;2023-03-16T07:13:45;7.65;;;2.22;;
71462;SDS011;59266;52.608;13.260;2023-03-16T07:16:11;6.28;;;1.80;;
71462;SDS011;59266;52.608;13.260;2023-03-16T07:18:38;8.55;;;1.80;;
71462;SDS011;59266;52.608;13.260;2023-03-16T07:21:05;4.82;;;1.80;;
71462;SDS011;59266;52.608;13.260;2023-03-16T07:23:31;9.48;;;2.17;;
71462;SDS011;59266;52.608;13.260;2023-03-16T07:25:58;10.80;;;2.10;;
71462;SDS011;59266;52.608;13.260;2023-03-16T07:28:24;8.60;;;2.00;;
71462;SDS011;59266;52.608;13.260;2023-03-16T07:30:53;5.95;;;1.75;;
71462;SDS011;59266;52.608;13.260;2023-03-16T07:33:29;8.15;;;1.77;;
71462;SDS011;59266;52.608;13.260;2023-03-16T07:35:57;8.00;;;2.10;;
71462;SDS011;59266;52.608;13.260;2023-03-16T07:38:24;7.55;;;2.00;;
71462;SDS011;59266;52.608;13.260;2023-03-16T07:40:50;9.40;;;2.13;;
71462;SDS011;59266;52.608;13.260;2023-03-16T07:43:17;6.82;;;2.35;;
71462;SDS011;59266;52.608;13.260;2023-03-16T07:45:48;9.88;;;1.98;;
71462;SDS011;59266;52.608;13.260;2023-03-16T07:48:15;7.18;;;1.85;;
71462;SDS011;59266;52.608;13.260;2023-03-16T07:50:42;8.50;;;1.80;;
71462;SDS011;59266;52.608;13.260;2023-03-16T07:53:09;7.05;;;1.80;;
71462;SDS011;59266;52.608;13.260;2023-03-16T07:55:35;9.38;;;1.85;;
71462;SDS011;59266;52.608;13.260;2023-03-16T07:58:04;6.75;;;1.70;;
71462;SDS011;59266;52.608;13.260;2023-03-16T08:00:31;9.75;;;2.28;;
71462;SDS011;59266;52.608;13.260;2023-03-16T08:02:58;13.95;;;2.58;;
71462;SDS011;59266;52.608;13.260;2023-03-16T08:05:25;6.93;;;1.60;;
71462;SDS011;59266;52.608;13.260;2023-03-16T08:07:53;8.07;;;2.08;;
71462;SDS011;59266;52.608;13.260;2023-03-16T08:10:21;7.85;;;1.90;;
71462;SDS011;59266;52.608;13.260;2023-03-16T08:12:48;6.63;;;1.80;;
71462;SDS011;59266;52.608;13.260;2023-03-16T08:15:14;8.18;;;1.88;;
71462;SDS011;59266;52.608;13.260;2023-03-16T08:17:41;4.88;;;1.70;;
71462;SDS011;59266;52.608;13.260;2023-03-16T08:20:08;9.25;;;1.70;;
71462;SDS011;59266;52.608;13.260;2023-03-16T08:22:37;6.43;;;1.65;;
71462;SDS011;59266;52.608;13.260;2023-03-16T08:25:04;7.68;;;2.00;;
71462;SDS011;59266;52.608;13.260;2023-03-16T08:27:32;8.50;;;2.15;;
71462;SDS011;59266;52.608;13.260;2023-03-16T08:29:58;11.80;;;2.05;;
71462;SDS011;59266;52.608;13.260;2023-03-16T08:32:30;7.68;;;1.70;;
71462;SDS011;59266;52.608;13.260;2023-03-16T08:34:57;6.28;;;1.85;;
71462;SDS011;59266;52.608;13.260;2023-03-16T08:37:25;5.80;;;1.70;;
71462;SDS011;59266;52.608;13.260;2023-03-16T08:39:52;7.60;;;1.70;;
71462;SDS011;59266;52.608;13.260;2023-03-16T08:42:19;6.20;;;1.70;;
71462;SDS011;59266;52.608;13.260;2023-03-16T08:44:46;6.13;;;1.60;;
71462;SDS011;59266;52.608;13.260;2023-03-16T08:47:15;7.82;;;1.70;;
71462;SDS011;59266;52.608;13.260;2023-03-16T08:49:42;9.68;;;1.70;;
71462;SDS011;59266;52.608;13.260;2023-03-16T08:52:09;6.63;;;1.52;;
71462;SDS011;59266;52.608;13.260;2023-03-16T08:54:38;6.18;;;1.40;;
71462;SDS011;59266;52.608;13.260;2023-03-16T08:57:22;7.05;;;1.45;;
71462;SDS011;59266;52.608;13.260;2023-03-16T08:59:49;6.18;;;1.58;;
71462;SDS011;59266;52.608;13.260;2023-03-16T09:02:16;7.70;;;1.77;;
71462;SDS011;59266;52.608;13.260;2023-03-16T09:04:43;5.93;;;1.48;;
71462;SDS011;59266;52.608;13.260;2023-03-16T09:07:11;7.72;;;1.60;;
71462;SDS011;59266;52.608;13.260;2023-03-16T09:09:38;4.50;;;1.30;;
71462;SDS011;59266;52.608;13.260;2023-03-16T09:12:05;9.85;;;1.42;;
71462;SDS011;59266;52.608;13.260;2023-03-16T09:14:32;8.57;;;1.88;;
71462;SDS011;59266;52.608;13.260;2023-03-16T09:16:58;6.18;;;1.50;;
71462;SDS011;59266;52.608;13.260;2023-03-16T09:19:25;7.72;;;1.65;;
71462;SDS011;59266;52.608;13.260;2023-03-16T09:21:55;11.02;;;2.25;;
71462;SDS011;59266;52.608;13.260;2023-03-16T09:24:22;7.70;;;1.33;;
71462;SDS011;59266;52.608;13.260;2023-03-16T09:26:49;6.53;;;1.35;;
71462;SDS011;59266;52.608;13.260;2023-03-16T09:29:16;7.20;;;1.60;;
71462;SDS011;59266;52.608;13.260;2023-03-16T09:31:44;4.97;;;1.30;;
71462;SDS011;59266;52.608;13.260;2023-03-16T09:34:11;5.00;;;1.38;;
71462;SDS011;59266;52.608;13.260;2023-03-16T09:36:38;7.38;;;1.30;;
71462;SDS011;59266;52.608;13.260;2023-03-16T09:39:05;8.68;;;1.58;;
71462;SDS011;59266;52.608;13.260;2023-03-16T09:44:37;5.85;;;1.42;;
71462;SDS011;59266;52.608;13.260;2023-03-16T09:47:11;6.70;;;1.58;;
71462;SDS011;59266;52.608;13.260;2023-03-16T09:49:42;8.20;;;2.15;;
71462;SDS011;59266;52.608;13.260;2023-03-16T09:57:37;7.10;;;1.40;;
71462;SDS011;59266;52.608;13.260;2023-03-16T10:05:36;5.15;;;1.20;;
71462;SDS011;59266;52.608;13.260;2023-03-16T10:13:36;7.88;;;1.40;;
71462;SDS011;59266;52.608;13.260;2023-03-16T10:16:29;5.80;;;1.30;;
71462;SDS011;59266;52.608;13.260;2023-03-16T10:19:02;7.00;;;1.20;;
71462;SDS011;59266;52.608;13.260;2023-03-16T10:21:38;6.57;;;1.20;;
71462;SDS011;59266;52.608;13.260;2023-03-16T10:24:15;6.20;;;1.35;;
71462;SDS011;59266;52.608;13.260;2023-03-16T10:26:53;5.00;;;1.30;;
71462;SDS011;59266;52.608;13.260;2023-03-16T10:29:27;7.93;;;1.80;;
71462;SDS011;59266;52.608;13.260;2023-03-16T10:31:58;6.72;;;1.33;;
71462;SDS011;59266;52.608;13.260;2023-03-16T10:34:32;5.20;;;1.15;;
71462;SDS011;59266;52.608;13.260;2023-03-16T10:37:00;7.68;;;1.40;;
71462;SDS011;59266;52.608;13.260;2023-03-16T10:39:34;6.03;;;1.60;;
71462;SDS011;59266;52.608;13.260;2023-03-16T10:42:02;6.60;;;1.48;;
71462;SDS011;59266;52.608;13.260;2023-03-16T10:44:28;5.90;;;1.38;;
71462;SDS011;59266;52.608;13.260;2023-03-16T10:47:05;6.93;;;1.20;;
71462;SDS011;59266;52.608;13.260;2023-03-16T10:49:40;6.50;;;1.35;;
71462;SDS011;59266;52.608;13.260;2023-03-16T10:52:21;8.50;;;1.42;;
71462;SDS011;59266;52.608;13.260;2023-03-16T10:54:56;5.47;;;1.25;;
71462;SDS011;59266;52.608;13.260;2023-03-16T10:57:34;5.97;;;1.42;;
71462;SDS011;59266;52.608;13.260;2023-03-16T11:02:41;5.40;;;1.40;;
71462;SDS011;59266;52.608;13.260;2023-03-16T11:05:12;3.55;;;1.08;;
71462;SDS011;59266;52.608;13.260;2023-03-16T11:08:01;6.78;;;1.80;;
71462;SDS011;59266;52.608;13.260;2023-03-16T11:10:36;5.43;;;1.40;;
71462;SDS011;59266;52.608;13.260;2023-03-16T11:13:20;6.85;;;1.55;;
71462;SDS011;59266;52.608;13.260;2023-03-16T11:15:52;4.72;;;1.30;;
71462;SDS011;59266;52.608;13.260;2023-03-16T11:18:36;6.10;;;1.45;;
71462;SDS011;59266;52.608;13.260;2023-03-16T11:21:14;3.22;;;1.00;;
71462;SDS011;59266;52.608;13.260;2023-03-16T11:23:47;6.70;;;1.80;;
71462;SDS011;59266;52.608;13.260;2023-03-16T11:26:25;5.13;;;1.40;;
71462;SDS011;59266;52.608;13.260;2023-03-16T11:29:04;4.35;;;1.30;;
71462;SDS011;59266;52.608;13.260;2023-03-16T11:34:12;5.18;;;1.27;;
71462;SDS011;59266;52.608;13.260;2023-03-16T11:36:52;4.38;;;1.30;;
71462;SDS011;59266;52.608;13.260;2023-03-16T11:39:31;7.35;;;1.40;;
71462;SDS011;59266;52.608;13.260;2023-03-16T11:45:11;7.20;;;1.50;;
71462;SDS011;59266;52.608;13.260;2023-03-16T11:50:32;5.15;;;1.40;;
71462;SDS011;59266;52.608;13.260;2023-03-16T11:53:22;5.20;;;1.38;;
71462;SDS011;59266;52.608;13.260;2023-03-16T11:56:04;4.88;;;1.27;;
71462;SDS011;59266;52.608;13.260;2023-03-16T12:01:17;6.28;;;1.50;;
71462;SDS011;59266;52.608;13.260;2023-03-16T12:04:17;9.70;;;1.40;;
71462;SDS011;59266;52.608;13.260;2023-03-16T12:07:34;5.97;;;1.30;;
71462;SDS011;59266;52.608;13.260;2023-03-16T12:10:16;5.50;;;1.20;;
71462;SDS011;59266;52.608;13.260;2023-03-16T12:12:56;7.43;;;1.52;;
71462;SDS011;59266;52.608;13.260;2023-03-16T12:15:48;3.80;;;1.05;;
71462;SDS011;59266;52.608;13.260;2023-03-16T12:18:25;6.00;;;1.30;;
71462;SDS011;59266;52.608;13.260;2023-03-16T12:21:09;2.55;;;1.00;;
71462;SDS011;59266;52.608;13.260;2023-03-16T12:24:15;11.75;;;3.92;;
71462;SDS011;59266;52.608;13.260;2023-03-16T12:26:45;4.45;;;1.40;;
71462;SDS011;59266;52.608;13.260;2023-03-16T12:29:28;4.50;;;1.25;;
71462;SDS011;59266;52.608;13.260;2023-03-16T12:40:42;5.50;;;1.20;;
71462;SDS011;59266;52.608;13.260;2023-03-16T12:43:30;4.40;;;1.20;;
71462;SDS011;59266;52.608;13.260;2023-03-16T12:46:30;3.63;;;1.10;;
71462;SDS011;59266;52.608;13.260;2023-03-16T12:49:06;5.03;;;1.13;;
71462;SDS011;59266;52.608;13.260;2023-03-16T12:51:38;5.15;;;1.13;;
71462;SDS011;59266;52.608;13.260;2023-03-16T12:54:22;3.35;;;1.10;;
71462;SDS011;59266;52.608;13.260;2023-03-16T12:56:51;6.22;;;1.30;;
71462;SDS011;59266;52.608;13.260;2023-03-16T12:59:20;5.47;;;1.20;;
71462;SDS011;59266;52.608;13.260;2023-03-16T13:01:52;4.38;;;1.08;;
71462;SDS011;59266;52.608;13.260;2023-03-16T13:04:57;8.02;;;1.40;;
71462;SDS011;59266;52.608;13.260;2023-03-16T13:07:21;5.13;;;1.20;;
71462;SDS011;59266;52.608;13.260;2023-03-16T13:09:53;4.07;;;1.05;;
71462;SDS011;59266;52.608;13.260;2023-03-16T13:12:28;17.45;;;7.20;;
71462;SDS011;59266;52.608;13.260;2023-03-16T13:14:58;4.80;;;1.33;;
71462;SDS011;59266;52.608;13.260;2023-03-16T13:17:29;5.53;;;1.70;;
71462;SDS011;59266;52.608;13.260;2023-03-16T13:25:41;4.80;;;0.82;;
71462;SDS011;59266;52.608;13.260;2023-03-16T13:28:13;2.97;;;1.00;;
71462;SDS011;59266;52.608;13.260;2023-03-16T13:30:45;7.43;;;1.10;;
71462;SDS011;59266;52.608;13.260;2023-03-16T13:35:48;3.90;;;1.20;;
71462;SDS011;59266;52.608;13.260;2023-03-16T13:38:18;4.50;;;1.23;;
71462;SDS011;59266;52.608;13.260;2023-03-16T13:40:49;2.97;;;1.10;;
71462;SDS011;59266;52.608;13.260;2023-03-16T13:43:20;4.28;;;1.23;;
71462;SDS011;59266;52.608;13.260;2023-03-16T13:45:49;4.28;;;1.25;;
71462;SDS011;59266;52.608;13.260;2023-03-16T13:48:16;4.57;;;1.10;;
71462;SDS011;59266;52.608;13.260;2023-03-16T13:50:43;4.50;;;1.50;;
71462;SDS011;59266;52.608;13.260;2023-03-16T13:53:21;4.93;;;1.23;;
71462;SDS011;59266;52.608;13.260;2023-03-16T13:55:50;4.38;;;1.30;;
71462;SDS011;59266;52.608;13.260;2023-03-16T13:58:36;5.45;;;1.13;;
71462;SDS011;59266;52.608;13.260;2023-03-16T14:01:10;5.70;;;1.20;;
71462;SDS011;59266;52.608;13.260;2023-03-16T14:03:45;3.85;;;1.02;;
71462;SDS011;59266;52.608;13.260;2023-03-16T14:06:21;4.72;;;1.40;;
71462;SDS011;59266;52.608;13.260;2023-03-16T14:08:53;6.47;;;1.20;;
71462;SDS011;59266;52.608;13.260;2023-03-16T14:11:26;4.47;;;1.30;;
71462;SDS011;59266;52.608;13.260;2023-03-16T14:13:55;5.55;;;1.38;;
71462;SDS011;59266;52.608;13.260;2023-03-16T14:16:23;5.50;;;1.10;;
71462;SDS011;59266;52.608;13.260;2023-03-16T14:19:01;3.95;;;1.08;;
71462;SDS011;59266;52.608;13.260;2023-03-16T14:21:31;5.78;;;1.15;;
71462;SDS011;59266;52.608;13.260;2023-03-16T14:24:03;6.45;;;1.35;;
71462;SDS011;59266;52.608;13.260;2023-03-16T14:26:38;3.85;;;1.00;;
71462;SDS011;59266;52.608;13.260;2023-03-16T14:29:22;4.82;;;1.70;;
71462;SDS011;59266;52.608;13.260;2023-03-16T14:31:52;5.15;;;1.20;;
71462;SDS011;59266;52.608;13.260;2023-03-16T14:37:04;4.07;;;1.20;;
71462;SDS011;59266;52.608;13.260;2023-03-16T14:39:32;5.80;;;1.10;;
71462;SDS011;59266;52.608;13.260;2023-03-16T14:42:01;3.83;;;0.90;;
71462;SDS011;59266;52.608;13.260;2023-03-16T14:44:33;4.57;;;1.20;;
71462;SDS011;59266;52.608;13.260;2023-03-16T14:47:01;5.10;;;1.10;;
71462;SDS011;59266;52.608;13.260;2023-03-16T14:49:30;5.00;;;1.20;;
71462;SDS011;59266;52.608;13.260;2023-03-16T14:54:59;6.63;;;1.38;;
71462;SDS011;59266;52.608;13.260;2023-03-16T14:57:28;4.63;;;1.10;;
71462;SDS011;59266;52.608;13.260;2023-03-16T14:59:55;3.78;;;1.00;;
71462;SDS011;59266;52.608;13.260;2023-03-16T15:02:24;4.30;;;1.10;;
71462;SDS011;59266;52.608;13.260;2023-03-16T15:04:55;4.28;;;1.20;;
71462;SDS011;59266;52.608;13.260;2023-03-16T15:07:32;4.05;;;1.20;;
71462;SDS011;59266;52.608;13.260;2023-03-16T15:12:49;5.95;;;1.00;;
71462;SDS011;59266;52.608;13.260;2023-03-16T15:15:21;6.88;;;1.50;;
71462;SDS011;59266;52.608;13.260;2023-03-16T15:17:49;4.82;;;1.10;;
71462;SDS011;59266;52.608;13.260;2023-03-16T15:20:18;3.60;;;1.05;;
71462;SDS011;59266;52.608;13.260;2023-03-16T15:22:49;3.95;;;1.10;;
71462;SDS011;59266;52.608;13.260;2023-03-16T15:25:19;2.65;;;1.08;;
71462;SDS011;59266;52.608;13.260;2023-03-16T15:27:50;4.38;;;0.90;;
71462;SDS011;59266;52.608;13.260;2023-03-16T15:30:19;4.55;;;0.95;;
71462;SDS011;59266;52.608;13.260;2023-03-16T15:32:50;4.15;;;0.93;;
71462;SDS011;59266;52.608;13.260;2023-03-16T15:35:17;4.55;;;1.00;;
71462;SDS011;59266;52.608;13.260;2023-03-16T15:37:45;3.65;;;1.10;;
71462;SDS011;59266;52.608;13.260;2023-03-16T15:40:13;4.00;;;1.10;;
71462;SDS011;59266;52.608;13.260;2023-03-16T15:42:41;2.72;;;1.05;;
71462;SDS011;59266;52.608;13.260;2023-03-16T15:45:12;3.88;;;1.40;;
71462;SDS011;59266;52.608;13.260;2023-03-16T15:47:42;3.17;;;1.00;;
71462;SDS011;59266;52.608;13.260;2023-03-16T15:50:10;3.70;;;0.90;;
71462;SDS011;59266;52.608;13.260;2023-03-16T15:52:38;3.05;;;0.60;;
71462;SDS011;59266;52.608;13.260;2023-03-16T15:55:12;3.17;;;1.00;;
71462;SDS011;59266;52.608;13.260;2023-03-16T15:57:40;4.95;;;0.82;;